Anthony, Florida
Current Conditions -  °F | °C
As of 12:35 AM on Wednesday 26 Nov 2014 (Local Time) from KOCF Reporting Station
Overcast Overcast  
Wind Chill: 18°   Ceiling: 300
Heat Index: 18°   Visibility: 1.5mi
Dew Point: 17°   Wind: 7mph
Humidity: 94%   Direction: 320°NW
Pressure: 29.86"   Gusts: NA
Location:  29.29°N, 82.11°W
Report Text: KOCF 260535Z AUTO 32006KT 1 1/2SM OVC003 18/17 A2986 RMK AO1
Loading
Personal Weather Stations






























Interactive Weather Map New forecast layout! Learn more

10-Day Weather Forecast

Advertisements
Track Severe Weather on mobile